Key West, FL

8:01 AM EST on December 25, 2014 (GMT -0500)
Key West International | Change Station
CLOSE
Current Station
Airport
Location: Key West,
Elevation: 0 ft
Nearby Weather Stations

Elev 0 ft 24.56 °N, 81.75 °W | Updated 8 minutes ago

Scattered Clouds
Scattered Clouds
70 °F
Feels Like 70 °F
N
14
Wind Variable Wind from North

Today
High -- | Low -- °F
--% Chance of Precip.
Yesterday
High -- | Low -- °F
Precip. -- in
7:08 AM 5:45 PM
Waxing Crescent, 16% visible
Pressure 30.12 in
Visibility 10.0 miles
Clouds Few 8000 ft
Scattered Clouds 11000 ft
Dew Point 65 °F
Humidity 84%
Rainfall 0.66 in
Snow Depth Not available.
UV 0 out of 12
Pollen 2.20 out of 12
Air Quality Not available.
Flu Activity Not available.
METAR KEYW 251253Z 01012KT 10SM FEW080 SCT110 21/18 A3012 RMK AO2 SLP199 T02110183

More Conditions Fewer Conditions

Pressure 30.12 in
Visibility 10.0 miles
Clouds Few 8000 ft
Scattered Clouds 11000 ft
Dew Point 65 °F
Humidity 84%
Rainfall 0.66 in
Snow Depth Not available.
UV 0 out of 12
Pollen 2.20 out of 12
Air Quality Not available.
Flu Activity Not available.
METAR KEYW 251253Z 01012KT 10SM FEW080 SCT110 21/18 A3012 RMK AO2 SLP199 T02110183

More Conditions Fewer Conditions

Nowcast | as of 6:52 am EST on December 25, 2014

Through 800 am...scattered to numerous showers...will continue to impact the Florida Keys island chain as well as the nearshore and offshore waters surrounding the island chain. Showers are moving toward the north northeast at 25 knots. Mariners and motorists can expect winds 25 to 30 mph...moderate to locally heavy rainfall...and reduced visibility. Over land a spell or two of rainfall can be expected.

×

10-Day Weather Forecast

Almanac

Astronomy

Dec. 25, 2014 Rise Set
Actual Time
Civil Twilight
Nautical Twilight
Astronomical Twilight
Moon
Length of Visible Light
Length of Day
Tomorrow will be .
, % of the Moon is Illuminated

Today's Extremes

State Highs State Lows

Community

WunderPhotos

Upload Photos

1,780,266 photos uploaded!

WunderBlogs® & News

Nearby

Air Quality

  Air Quality AQ Index Pollutant
Not available.

Snow Depth

Station Depth Elevation

Earthquake Activity

City Distance Mag. Time & Date
Minimum magnitude displayed is 2.5.

Coastal Water Temperatures

Place Temperature

Nearby Weather Stations